Time;durP1;ratioP1;P1;durP2;ratioP2;P2;SDS_P1;SDS_P2;PMS_P1;PMS_P2;Temp;Humidity;BMP_temperature;BMP_pressure;BME280_temperature;BME280_humidity;BME280_pressure;Samples;Min_cycle;Max_cycle;Signal;HPM_P1;HPM_P2
2021/07/13 00:00:24;;;;;;;2.40;1.42;;;;;;;26.60;43.16;100143.28;5036288;28;20045;-72
2021/07/13 00:03:10;;;;;;;1.50;1.40;;;;;;;26.56;43.43;100128.63;5036649;28;20048;-71
2021/07/13 00:05:54;;;;;;;4.43;2.13;;;;;;;26.52;43.30;100127.13;5018136;28;20120;-70
2021/07/13 00:08:40;;;;;;;4.40;1.63;;;;;;;26.49;43.17;100119.66;5041544;28;20064;-71
2021/07/13 00:11:25;;;;;;;2.33;1.35;;;;;;;26.53;42.83;100121.13;5042219;28;20421;-70
2021/07/13 00:14:11;;;;;;;1.80;1.30;;;;;;;26.52;43.03;100116.00;5038408;28;20052;-70
2021/07/13 00:16:55;;;;;;;3.72;1.73;;;;;;;26.49;43.32;100100.94;5036508;28;20531;-70
2021/07/13 00:19:40;;;;;;;2.97;1.50;;;;;;;26.46;42.84;100093.44;5026980;28;20115;-70
2021/07/13 00:22:25;;;;;;;1.85;1.55;;;;;;;26.45;42.90;100093.88;5016721;28;20117;-68
2021/07/13 00:25:12;;;;;;;2.97;2.15;;;;;;;26.45;43.08;100082.72;5030689;28;20041;-69
2021/07/13 00:27:57;;;;;;;7.32;1.27;;;;;;;26.45;42.50;100085.50;5049694;28;20056;-70
2021/07/13 00:30:42;;;;;;;3.22;1.27;;;;;;;26.47;42.36;100078.25;5024453;28;20416;-69
2021/07/13 00:33:27;;;;;;;2.60;1.30;;;;;;;26.46;41.73;100071.13;5049100;28;20043;-70
2021/07/13 00:36:12;;;;;;;3.13;1.70;;;;;;;26.45;42.66;100082.72;5042135;28;20048;-71
2021/07/13 00:38:58;;;;;;;2.97;1.30;;;;;;;26.43;42.48;100074.00;5039749;28;20048;-70
2021/07/13 00:41:43;;;;;;;2.65;1.75;;;;;;;26.42;42.84;100075.22;5050780;28;20048;-71
2021/07/13 00:44:28;;;;;;;3.90;1.52;;;;;;;26.36;42.54;100064.59;5037266;28;20068;-70
2021/07/13 00:47:17;;;;;;;4.93;1.38;;;;;;;26.35;42.88;100071.41;5041177;28;20052;-70
2021/07/13 00:50:04;;;;;;;4.13;1.38;;;;;;;26.36;42.80;100075.75;5044998;28;20048;-71
2021/07/13 00:52:49;;;;;;;3.17;1.50;;;;;;;26.38;43.10;100078.09;5038129;28;20404;-71
2021/07/13 00:55:34;;;;;;;2.10;1.33;;;;;;;26.38;43.08;100076.09;5038027;28;20036;-71
2021/07/13 00:58:19;;;;;;;5.72;1.33;;;;;;;26.35;43.77;100071.41;5032815;28;20044;-71
2021/07/13 01:01:05;;;;;;;5.13;1.92;;;;;;;26.34;43.54;100067.06;5045202;28;20126;-71
2021/07/13 01:03:50;;;;;;;3.67;1.38;;;;;;;26.32;43.67;100068.72;5042711;28;20064;-70
2021/07/13 01:06:43;;;;;;;2.58;1.23;;;;;;;26.35;43.77;100060.25;5042474;28;20536;-69
2021/07/13 01:09:39;;;;;;;3.10;1.25;;;;;;;26.24;41.75;100056.19;5043319;28;20056;-69
2021/07/13 01:12:39;;;;;;;3.33;1.48;;;;;;;25.83;43.79;100040.06;5046018;28;20037;-69
2021/07/13 01:15:28;;;;;;;1.27;1.17;;;;;;;25.98;45.46;100038.50;5041884;28;20040;-70
2021/07/13 01:18:24;;;;;;;3.42;1.40;;;;;;;26.13;45.07;100028.56;5044794;28;20516;-72
2021/07/13 01:21:32;;;;;;;3.53;2.20;;;;;;;26.00;42.20;100019.34;5044326;28;20044;-72
2021/07/13 01:24:36;;;;;;;4.35;1.67;;;;;;;25.88;42.76;100025.63;5036098;28;20052;-71
2021/07/13 01:27:47;;;;;;;5.85;1.65;;;;;;;25.75;42.99;100017.16;5043849;28;20048;-70
2021/07/13 01:30:43;;;;;;;4.00;1.77;;;;;;;25.33;44.59;100015.38;5038782;28;20041;-70
2021/07/13 01:33:29;;;;;;;7.03;1.80;;;;;;;25.23;45.39;100017.19;5042970;28;20044;-70
2021/07/13 01:36:28;;;;;;;4.82;1.40;;;;;;;25.20;45.31;100008.91;5035298;28;20036;-71
2021/07/13 01:39:15;;;;;;;2.20;1.52;;;;;;;25.26;46.78;100009.97;5042253;28;20048;-71
2021/07/13 01:42:04;;;;;;;7.53;1.60;;;;;;;25.37;45.74;100005.72;5044766;28;20040;-70
2021/07/13 01:44:50;;;;;;;2.45;1.73;;;;;;;25.37;46.47;100002.16;5043009;28;20044;-71
2021/07/13 01:47:39;;;;;;;3.75;1.48;;;;;;;25.37;45.62;99999.38;5041702;28;20051;-71
2021/07/13 01:50:25;;;;;;;13.57;1.98;;;;;;;25.07;46.89;100009.59;5037613;28;20048;-70
2021/07/13 01:53:11;;;;;;;6.97;2.05;;;;;;;24.95;47.44;100003.88;5041299;28;20056;-70
2021/07/13 01:55:57;;;;;;;4.47;2.20;;;;;;;24.87;48.26;100011.59;5045448;28;20060;-71
2021/07/13 01:58:43;;;;;;;11.20;2.97;;;;;;;24.74;48.81;100016.19;5043441;28;20063;-71
2021/07/13 02:01:31;;;;;;;6.30;2.42;;;;;;;24.94;48.77;100014.22;5039084;28;20060;-71
2021/07/13 02:04:17;;;;;;;2.58;1.70;;;;;;;25.32;49.89;100011.03;5041191;28;20049;-70
2021/07/13 02:07:06;;;;;;;4.22;2.83;;;;;;;25.26;48.00;100010.75;5047101;28;20052;-72
2021/07/13 02:09:52;;;;;;;5.65;3.78;;;;;;;25.30;47.88;100016.22;5046355;28;20043;-70
2021/07/13 02:12:38;;;;;;;2.85;2.10;;;;;;;25.43;49.08;100008.78;5047638;28;20056;-69
2021/07/13 02:15:23;;;;;;;3.47;1.80;;;;;;;25.70;49.39;100012.13;5044805;28;20036;-70
2021/07/13 02:18:08;;;;;;;5.13;2.15;;;;;;;25.83;49.08;100015.78;5044801;28;20048;-70
2021/07/13 02:20:54;;;;;;;5.50;2.40;;;;;;;25.89;49.12;100011.25;5046563;28;20515;-70
2021/07/13 02:23:38;;;;;;;7.80;2.20;;;;;;;25.71;49.75;100026.81;5046246;28;20061;-71
2021/07/13 02:26:47;;;;;;;3.17;2.10;;;;;;;25.70;49.64;100022.50;5056081;28;20040;-71
2021/07/13 02:29:38;;;;;;;11.50;3.45;;;;;;;25.70;48.85;100017.69;5030691;28;20053;-71
2021/07/13 02:32:32;;;;;;;7.50;2.72;;;;;;;25.75;49.64;100021.97;5017019;28;20412;-70
2021/07/13 02:35:26;;;;;;;;;;;;;;;25.65;49.98;100009.09;5015939;28;20053;-72
2021/07/13 02:38:11;;;;;;;6.10;2.70;;;;;;;25.57;50.18;100019.59;5018045;28;19913;-72
2021/07/13 02:40:57;;;;;;;5.55;2.67;;;;;;;25.49;49.71;100018.19;5032036;28;20052;-71
2021/07/13 02:43:43;;;;;;;5.43;2.38;;;;;;;25.74;50.39;100021.19;5039309;28;20053;-71
2021/07/13 02:46:30;;;;;;;3.40;2.40;;;;;;;25.81;50.75;100012.63;5037653;28;20042;-71
2021/07/13 02:49:20;;;;;;;5.43;2.85;;;;;;;25.67;48.37;100006.63;5035817;28;20056;-71
2021/07/13 02:52:07;;;;;;;5.15;2.40;;;;;;;25.61;50.79;100013.94;5037808;28;20121;-70
2021/07/13 02:54:56;;;;;;;3.65;2.67;;;;;;;25.78;50.85;100010.72;5036192;28;20405;-70
2021/07/13 02:57:42;;;;;;;2.95;2.28;;;;;;;25.78;50.50;100010.72;5035456;28;20056;-71
2021/07/13 03:00:28;;;;;;;4.03;2.38;;;;;;;25.67;51.16;100004.63;5039229;28;20421;-71
2021/07/13 03:03:14;;;;;;;7.30;2.72;;;;;;;25.19;49.05;100001.78;5037576;28;20421;-71
2021/07/13 03:06:00;;;;;;;7.18;2.20;;;;;;;25.39;51.78;99997.72;5035275;28;20041;-71
2021/07/13 03:08:45;;;;;;;5.72;2.47;;;;;;;25.61;51.86;99984.09;5039458;28;20056;-70
2021/07/13 03:11:32;;;;;;;3.88;2.30;;;;;;;25.71;51.86;99979.47;5035492;28;20508;-70
2021/07/13 03:14:19;;;;;;;5.15;2.47;;;;;;;25.78;51.06;99963.38;5033394;28;20544;-71
2021/07/13 03:17:07;;;;;;;3.88;2.17;;;;;;;25.74;47.82;99967.47;5039068;28;20393;-70
2021/07/13 03:19:52;;;;;;;3.45;2.05;;;;;;;25.49;49.38;99968.84;5037723;28;20056;-70
2021/07/13 03:22:41;;;;;;;4.30;1.83;;;;;;;25.42;48.44;99968.22;5023259;28;20065;-70
2021/07/13 03:25:30;;;;;;;4.20;2.10;;;;;;;25.45;50.71;99965.34;5014290;28;20049;-71
2021/07/13 03:28:16;;;;;;;3.45;2.20;;;;;;;25.67;51.04;99970.44;5017003;28;20064;-70
2021/07/13 03:31:01;;;;;;;5.22;1.92;;;;;;;25.66;50.18;99966.06;5015001;28;20049;-71
2021/07/13 03:33:46;;;;;;;3.15;1.92;;;;;;;25.82;49.68;99969.63;5033925;28;20421;-72
2021/07/13 03:36:32;;;;;;;5.40;2.05;;;;;;;25.85;48.91;99956.84;5036616;28;20053;-72
2021/07/13 03:39:18;;;;;;;6.55;3.22;;;;;;;25.89;49.12;99951.97;5035137;28;20052;-72
2021/07/13 03:42:04;;;;;;;3.45;2.05;;;;;;;25.95;49.45;99953.00;5038705;28;20445;-72
2021/07/13 03:44:49;;;;;;;4.07;1.92;;;;;;;25.98;49.04;99950.13;5015414;28;20049;-70
2021/07/13 03:47:34;;;;;;;3.10;2.22;;;;;;;25.97;48.86;99947.75;5015070;28;20061;-71
2021/07/13 03:50:20;;;;;;;3.97;2.38;;;;;;;25.94;48.16;99949.44;5018901;28;20406;-71
2021/07/13 03:53:05;;;;;;;5.50;2.45;;;;;;;25.97;48.51;99945.75;5016655;28;20048;-71
2021/07/13 03:55:50;;;;;;;6.47;2.55;;;;;;;25.98;48.14;99943.75;5015158;28;20064;-70
2021/07/13 03:58:35;;;;;;;5.63;2.60;;;;;;;26.05;48.58;99943.56;5019145;28;20133;-71
2021/07/13 04:01:20;;;;;;;4.88;2.80;;;;;;;26.04;48.05;99947.59;5017126;28;20045;-70
2021/07/13 04:04:05;;;;;;;3.58;1.95;;;;;;;26.08;48.11;99936.31;5034758;28;20056;-70
2021/07/13 04:06:51;;;;;;;2.80;1.92;;;;;;;25.99;48.12;99939.75;5033102;28;20052;-70
2021/07/13 04:09:36;;;;;;;5.40;2.65;;;;;;;26.07;48.00;99943.91;5036855;28;20520;-70
2021/07/13 04:12:20;;;;;;;9.18;2.67;;;;;;;26.07;47.76;99929.97;5022824;28;20071;-70
2021/07/13 04:15:07;;;;;;;7.22;2.35;;;;;;;26.02;47.18;99915.78;5013202;28;20414;-72
2021/07/13 04:17:51;;;;;;;4.90;2.50;;;;;;;26.02;46.79;99921.34;5019796;28;20393;-69
2021/07/13 04:20:36;;;;;;;4.30;1.98;;;;;;;26.02;45.44;99916.56;5018457;28;20053;-67
2021/07/13 04:23:22;;;;;;;7.38;1.98;;;;;;;26.06;45.84;99913.72;5019117;28;20052;-68
2021/07/13 04:26:07;;;;;;;5.07;2.17;;;;;;;26.08;45.73;99900.88;5018705;28;20077;-68
2021/07/13 04:28:52;;;;;;;4.50;1.50;;;;;;;26.09;45.61;99901.66;5019581;28;20047;-68
2021/07/13 04:31:37;;;;;;;2.65;1.60;;;;;;;26.07;45.83;99901.31;5013753;28;20512;-68
2021/07/13 04:34:22;;;;;;;4.47;1.50;;;;;;;26.08;45.51;99903.66;5016069;28;20045;-70
2021/07/13 04:37:06;;;;;;;;;;;;;;;26.12;45.24;99918.28;5019718;28;20073;-69
2021/07/13 04:39:52;;;;;;;2.53;1.60;;;;;;;26.09;44.86;99913.59;5033284;28;19913;-68
2021/07/13 04:42:36;;;;;;;8.57;1.60;;;;;;;26.05;44.40;99915.72;5038785;28;20048;-68
2021/07/13 04:45:22;;;;;;;4.47;1.80;;;;;;;26.03;45.52;99918.16;5013286;28;20041;-69
2021/07/13 04:48:07;;;;;;;4.82;1.55;;;;;;;26.02;45.47;99911.00;5013951;28;20060;-69
2021/07/13 04:50:52;;;;;;;2.85;1.48;;;;;;;26.04;45.85;99922.50;5019163;28;20048;-68
2021/07/13 04:53:37;;;;;;;4.28;2.10;;;;;;;26.02;45.45;99916.56;5017750;28;20052;-69
2021/07/13 04:56:22;;;;;;;4.15;1.83;;;;;;;26.04;45.90;99896.63;5018875;28;20049;-69
2021/07/13 04:59:08;;;;;;;11.55;1.98;;;;;;;26.04;46.53;99889.06;5028265;28;20406;-68
2021/07/13 05:01:53;;;;;;;6.18;1.65;;;;;;;26.07;47.09;99901.31;5018989;28;20049;-67
2021/07/13 05:04:38;;;;;;;4.72;2.22;;;;;;;26.08;47.60;99897.31;5019328;28;20052;-69
2021/07/13 05:07:23;;;;;;;6.82;2.05;;;;;;;26.10;47.94;99900.44;5018759;28;20063;-68
2021/07/13 05:10:10;;;;;;;10.77;2.10;;;;;;;26.07;48.05;99902.09;5018610;28;20072;-67
2021/07/13 05:12:55;;;;;;;2.90;1.63;;;;;;;26.05;48.60;99906.56;5018979;28;20049;-67
2021/07/13 05:15:40;;;;;;;5.35;2.15;;;;;;;26.10;48.88;99906.81;5028173;28;20056;-67
2021/07/13 05:18:25;;;;;;;7.00;2.50;;;;;;;26.11;48.77;99897.19;5026262;28;20398;-67
2021/07/13 05:21:11;;;;;;;4.85;2.28;;;;;;;26.12;49.03;99904.34;5016080;28;20056;-69
2021/07/13 05:23:56;;;;;;;8.90;2.08;;;;;;;26.15;49.32;99914.63;5015149;28;20053;-68
2021/07/13 05:26:41;;;;;;;4.40;2.70;;;;;;;26.19;49.11;99909.72;5018988;28;20048;-66
2021/07/13 05:29:26;;;;;;;7.43;3.30;;;;;;;26.21;49.46;99901.69;5030536;28;20505;-68
2021/07/13 05:32:10;;;;;;;11.30;3.17;;;;;;;26.26;49.26;99906.00;5038522;28;20052;-67
2021/07/13 05:34:55;;;;;;;4.38;2.35;;;;;;;26.27;49.32;99901.97;5033484;28;20048;-68
2021/07/13 05:37:40;;;;;;;6.32;2.35;;;;;;;26.27;49.26;99899.97;5033251;28;20044;-68
2021/07/13 05:40:25;;;;;;;;;;;;;;;26.30;49.21;99893.53;5034118;28;20056;-67
2021/07/13 05:43:10;;;;;;;3.65;1.77;;;;;;;26.28;49.16;99890.38;5022702;28;19913;-67
2021/07/13 05:45:55;;;;;;;8.43;2.53;;;;;;;26.40;49.02;99888.84;5022410;28;20094;-67
2021/07/13 05:48:39;;;;;;;5.00;2.30;;;;;;;26.34;48.77;99905.34;5022594;28;20053;-68
2021/07/13 05:51:24;;;;;;;2.63;2.40;;;;;;;26.36;48.72;99890.97;5022521;28;20053;-68
2021/07/13 05:54:09;;;;;;;6.45;1.95;;;;;;;26.39;48.57;99890.84;5035377;28;20052;-68
2021/07/13 05:56:54;;;;;;;7.35;2.38;;;;;;;26.37;48.57;99875.78;5042067;28;20044;-67
2021/07/13 05:59:40;;;;;;;4.63;2.08;;;;;;;26.38;48.34;99878.13;5038582;28;20393;-67
2021/07/13 06:02:25;;;;;;;5.35;2.40;;;;;;;26.39;48.24;99879.72;5042046;28;20048;-65
2021/07/13 06:05:10;;;;;;;10.52;2.90;;;;;;;26.44;48.12;99872.00;5016581;28;20041;-67
2021/07/13 06:07:55;;;;;;;8.52;1.90;;;;;;;26.42;48.17;99866.09;5028995;28;20056;-68
2021/07/13 06:10:40;;;;;;;15.32;2.30;;;;;;;26.34;47.73;99857.16;5041873;28;20049;-66
2021/07/13 06:13:25;;;;;;;39.95;6.50;;;;;;;26.36;47.96;99863.84;5041104;28;20044;-65
2021/07/13 06:16:10;;;;;;;12.77;4.25;;;;;;;26.29;47.97;99864.06;5041763;28;20041;-66
2021/07/13 06:18:55;;;;;;;5.47;2.28;;;;;;;26.26;48.39;99862.16;5030481;28;20049;-66
2021/07/13 06:21:39;;;;;;;;;;;;;;;26.35;48.21;99867.88;5018114;28;20045;-68
2021/07/13 06:24:24;;;;;;;7.43;2.10;;;;;;;26.47;47.98;99866.31;5028222;28;19913;-65
2021/07/13 06:27:09;;;;;;;4.82;2.05;;;;;;;26.56;47.98;99882.41;5043480;28;20056;-66
2021/07/13 06:29:54;;;;;;;3.60;2.42;;;;;;;26.65;47.63;99894.47;5049199;28;20424;-65
2021/07/13 06:32:39;;;;;;;;;;;;;;;26.70;47.13;99884.78;5056448;28;20044;-66
2021/07/13 06:35:24;;;;;;;5.95;2.30;;;;;;;26.76;47.13;99891.38;5052669;28;20372;-66
2021/07/13 06:38:08;;;;;;;3.53;2.05;;;;;;;26.81;47.22;99896.38;5039051;28;20045;-65
2021/07/13 06:40:53;;;;;;;3.97;2.30;;;;;;;26.86;47.52;99906.22;5046791;28;20068;-66
2021/07/13 06:43:38;;;;;;;6.40;2.50;;;;;;;26.81;47.71;99907.56;5047966;28;20048;-65
2021/07/13 06:46:23;;;;;;;7.53;2.50;;;;;;;26.84;48.39;99909.44;5015388;28;20057;-66
2021/07/13 06:49:09;;;;;;;4.43;2.72;;;;;;;26.88;48.99;99901.75;5020715;28;20425;-65
2021/07/13 06:51:53;;;;;;;7.65;3.90;;;;;;;26.96;49.04;99900.34;5021462;28;20057;-65
2021/07/13 06:54:39;;;;;;;7.53;3.35;;;;;;;27.07;49.01;99900.75;5031036;28;20052;-66
2021/07/13 06:57:24;;;;;;;5.90;2.75;;;;;;;27.17;48.43;99898.88;5041098;28;20072;-66
2021/07/13 07:00:10;;;;;;;5.03;2.95;;;;;;;27.13;48.44;99898.97;5037255;28;20401;-67
2021/07/13 07:02:55;;;;;;;4.22;2.80;;;;;;;27.16;47.89;99902.88;5034387;28;20053;-66
2021/07/13 07:05:40;;;;;;;5.43;2.10;;;;;;;27.20;47.68;99906.34;5038654;28;20040;-66
2021/07/13 07:08:25;;;;;;;4.80;3.08;;;;;;;27.17;47.55;99905.22;5037223;28;20056;-66
2021/07/13 07:11:11;;;;;;;8.30;3.00;;;;;;;27.18;48.07;99912.38;5034140;28;20053;-65
2021/07/13 07:13:56;;;;;;;4.30;2.60;;;;;;;27.13;47.64;99910.13;5038678;28;20048;-65
2021/07/13 07:16:41;;;;;;;8.02;2.30;;;;;;;27.23;46.98;99911.00;5035016;28;20037;-66
2021/07/13 07:19:25;;;;;;;6.47;2.92;;;;;;;27.26;47.07;99917.72;5015747;28;20402;-65
2021/07/13 07:22:10;;;;;;;6.75;2.40;;;;;;;27.38;46.83;99917.69;5013915;28;20541;-68
2021/07/13 07:24:57;;;;;;;7.82;2.30;;;;;;;27.38;47.24;99919.72;5015791;28;20061;-68
2021/07/13 07:27:42;;;;;;;5.20;2.40;;;;;;;27.36;47.60;99934.13;5015345;28;20053;-68
2021/07/13 07:30:28;;;;;;;5.53;2.22;;;;;;;27.49;46.77;99934.91;5020609;28;20057;-66
2021/07/13 07:33:13;;;;;;;3.28;2.30;;;;;;;27.34;47.25;99931.00;5013750;28;20041;-68
2021/07/13 07:35:58;;;;;;;3.25;2.10;;;;;;;27.26;46.73;99923.31;5015225;28;20053;-68
2021/07/13 07:38:43;;;;;;;4.65;2.00;;;;;;;27.21;46.33;99936.63;5019482;28;20053;-68
2021/07/13 07:41:28;;;;;;;12.77;2.92;;;;;;;27.22;46.09;99946.56;5020451;28;20057;-68
2021/07/13 07:44:12;;;;;;;7.10;2.53;;;;;;;27.25;46.17;99936.50;5015530;28;20053;-68
2021/07/13 07:46:58;;;;;;;2.85;2.00;;;;;;;27.25;46.10;99930.91;5020313;28;20045;-67
2021/07/13 07:49:43;;;;;;;5.80;2.30;;;;;;;27.37;45.45;99937.72;5020267;28;20057;-66
2021/07/13 07:52:27;;;;;;;3.85;1.90;;;;;;;27.36;45.41;99948.09;5015668;28;20057;-69
2021/07/13 07:55:15;;;;;;;6.45;2.35;;;;;;;27.41;45.35;99947.53;5017256;28;20536;-67
2021/07/13 07:58:00;;;;;;;5.13;2.33;;;;;;;27.38;45.92;99942.81;5039997;28;20508;-68
2021/07/13 08:00:46;;;;;;;5.85;2.65;;;;;;;27.45;45.90;99927.84;5039311;28;20043;-68
2021/07/13 08:03:31;;;;;;;5.53;2.13;;;;;;;27.48;45.40;99930.53;5038797;28;20140;-64
2021/07/13 08:06:16;;;;;;;5.22;2.08;;;;;;;27.76;45.10;99930.84;5039737;28;20041;-66
2021/07/13 08:09:01;;;;;;;3.38;2.22;;;;;;;27.97;44.47;99922.50;5020473;28;20516;-66
2021/07/13 08:11:46;;;;;;;8.05;2.33;;;;;;;27.65;45.43;99929.19;5019521;28;20048;-67
2021/07/13 08:14:32;;;;;;;4.13;2.28;;;;;;;27.82;44.43;99920.66;5016187;28;20061;-66
2021/07/13 08:17:17;;;;;;;5.80;2.17;;;;;;;27.79;44.08;99925.13;5015551;28;20045;-66
2021/07/13 08:20:03;;;;;;;5.18;1.90;;;;;;;27.86;43.89;99918.50;5014171;28;20497;-66
2021/07/13 08:22:49;;;;;;;2.50;2.00;;;;;;;27.62;44.95;99904.19;5032994;28;20048;-66
2021/07/13 08:25:34;;;;;;;3.35;1.88;;;;;;;27.65;44.12;99914.44;5019270;28;20068;-66
2021/07/13 08:28:19;;;;;;;6.05;2.13;;;;;;;27.70;44.65;99913.09;5019632;28;20536;-66
2021/07/13 08:31:04;;;;;;;4.30;2.00;;;;;;;27.83;43.64;99900.66;5019553;28;20044;-66
2021/07/13 08:33:49;;;;;;;6.68;1.85;;;;;;;27.90;42.83;99892.00;5017673;28;20057;-66
2021/07/13 08:36:33;;;;;;;5.63;1.95;;;;;;;27.92;42.60;99886.75;5013911;28;20049;-65
2021/07/13 08:39:19;;;;;;;3.15;2.20;;;;;;;28.14;42.51;99886.75;5019419;28;20044;-65
2021/07/13 08:42:05;;;;;;;5.15;2.25;;;;;;;28.20;43.01;99890.53;5019230;28;20044;-67
2021/07/13 08:44:50;;;;;;;4.35;2.10;;;;;;;27.96;43.35;99892.97;5014768;28;20057;-66
2021/07/13 08:47:37;;;;;;;8.20;2.13;;;;;;;27.73;44.27;99895.44;5019190;28;20064;-66
2021/07/13 08:50:22;;;;;;;4.72;2.38;;;;;;;27.90;44.32;99882.84;5016027;28;20053;-65
2021/07/13 08:53:08;;;;;;;7.53;2.30;;;;;;;28.06;43.47;99879.84;5027194;28;20056;-66
2021/07/13 08:55:54;;;;;;;9.05;1.90;;;;;;;27.92;44.36;99878.38;5038900;28;20404;-68
2021/07/13 08:58:39;;;;;;;5.30;1.90;;;;;;;27.92;43.99;99869.97;5038816;28;20060;-67
2021/07/13 09:01:24;;;;;;;8.80;2.13;;;;;;;27.77;44.82;99870.94;5038797;28;20044;-68
2021/07/13 09:04:09;;;;;;;6.50;2.45;;;;;;;27.77;45.15;99868.91;5022357;28;20056;-66
2021/07/13 09:06:57;;;;;;;4.70;1.92;;;;;;;27.68;45.67;99860.47;5015284;28;20060;-66
2021/07/13 09:09:47;;;;;;;7.15;2.30;;;;;;;27.88;44.92;99852.56;5012151;28;20057;-65
2021/07/13 09:12:32;;;;;;;5.55;1.95;;;;;;;27.93;45.32;99840.00;5018356;28;20069;-65
2021/07/13 09:15:19;;;;;;;7.03;2.30;;;;;;;28.10;44.94;99832.97;5030532;28;20540;-66
2021/07/13 09:18:04;;;;;;;7.63;2.58;;;;;;;28.07;44.80;99831.88;5038441;28;20508;-66
2021/07/13 09:21:04;;;;;;;5.57;2.05;;;;;;;28.22;44.81;99842.56;5053269;28;20064;-68
2021/07/13 09:24:14;;;;;;;4.53;2.17;;;;;;;27.80;46.16;99831.69;5040426;28;20445;-67
2021/07/13 09:27:00;;;;;;;2.42;1.75;;;;;;;27.86;46.11;99838.25;5055226;28;20409;-67
2021/07/13 09:29:48;;;;;;;7.45;3.00;;;;;;;27.84;46.19;99829.53;5055366;28;20044;-68
2021/07/13 09:32:35;;;;;;;4.68;2.13;;;;;;;27.99;45.49;99819.38;5053211;28;20047;-65
2021/07/13 09:35:21;;;;;;;5.25;2.55;;;;;;;28.12;45.23;99830.53;5034033;28;20039;-66
2021/07/13 09:38:06;;;;;;;7.50;3.28;;;;;;;28.07;45.95;99825.50;5040581;28;20049;-67
2021/07/13 09:41:10;;;;;;;6.07;2.88;;;;;;;28.21;45.53;99815.81;5024482;28;20516;-67
2021/07/13 09:43:59;;;;;;;4.40;2.40;;;;;;;28.22;45.04;99820.97;5039356;28;20048;-67
2021/07/13 09:46:45;;;;;;;4.35;2.47;;;;;;;28.16;45.30;99822.78;5022154;28;20529;-67
2021/07/13 09:49:32;;;;;;;4.60;2.42;;;;;;;28.06;45.50;99809.97;5018253;28;20049;-67
2021/07/13 09:52:22;;;;;;;10.48;2.72;;;;;;;27.85;46.62;99808.72;5024348;28;20044;-67
2021/07/13 09:55:15;;;;;;;13.98;3.13;;;;;;;27.86;46.68;99821.47;5040876;28;20428;-67
2021/07/13 09:58:15;;;;;;;11.55;2.58;;;;;;;27.81;46.42;99829.66;5025778;28;20041;-66
2021/07/13 10:01:00;;;;;;;4.20;2.97;;;;;;;27.81;47.28;99824.06;5034215;28;20052;-67
2021/07/13 10:03:45;;;;;;;6.10;3.03;;;;;;;27.80;47.14;99828.09;5036271;28;20044;-65
2021/07/13 10:06:32;;;;;;;3.83;2.78;;;;;;;27.75;47.75;99846.22;5028652;28;20052;-67
2021/07/13 10:09:20;;;;;;;7.95;2.95;;;;;;;27.74;48.30;99833.47;5055013;28;20055;-67
2021/07/13 10:12:11;;;;;;;7.78;3.30;;;;;;;27.89;47.65;99833.75;5058167;28;20051;-67
2021/07/13 10:14:57;;;;;;;7.25;2.70;;;;;;;28.00;47.15;99845.31;5053009;28;20067;-69
2021/07/13 10:17:44;;;;;;;4.95;2.83;;;;;;;28.08;47.28;99853.00;5054996;28;20503;-68
2021/07/13 10:20:31;;;;;;;53.97;11.70;;;;;;;28.15;47.33;99854.78;5054149;28;20060;-65
2021/07/13 10:23:16;;;;;;;71.57;19.48;;;;;;;28.19;47.32;99857.47;5019987;28;20053;-65
2021/07/13 10:26:01;;;;;;;63.67;14.60;;;;;;;28.23;47.86;99856.09;5018003;28;20053;-64
2021/07/13 10:28:46;;;;;;;32.20;8.52;;;;;;;28.24;47.96;99857.63;5017433;28;20052;-66
2021/07/13 10:31:36;;;;;;;35.78;8.52;;;;;;;28.28;47.83;99863.88;5021654;28;20048;-65
2021/07/13 10:34:46;;;;;;;56.72;13.80;;;;;;;28.30;48.10;99867.00;5057436;28;20123;-66
2021/07/13 10:37:37;;;;;;;46.25;10.90;;;;;;;28.31;48.12;99859.38;5037252;28;20527;-65
2021/07/13 10:40:25;;;;;;;66.95;14.35;;;;;;;28.31;47.95;99851.78;5061360;28;20053;-65
2021/07/13 10:43:17;;;;;;;59.63;11.57;;;;;;;28.30;48.10;99833.44;5061129;28;20405;-65
2021/07/13 10:46:10;;;;;;;15.13;5.60;;;;;;;28.30;48.79;99825.03;5055605;28;20547;-66
2021/07/13 10:49:17;;;;;;;46.25;10.80;;;;;;;28.32;49.54;99797.41;5061185;28;20405;-65
2021/07/13 10:52:02;;;;;;;22.50;6.05;;;;;;;28.31;49.57;99807.03;5047042;28;20400;-64
2021/07/13 10:54:48;;;;;;;22.40;6.28;;;;;;;28.31;50.23;99784.66;5037597;28;20049;-65
2021/07/13 10:57:33;;;;;;;27.73;7.20;;;;;;;28.31;49.44;99772.69;5049388;28;20428;-65
2021/07/13 11:00:47;;;;;;;31.33;8.00;;;;;;;28.31;49.73;99775.47;5043718;28;20477;-65
2021/07/13 11:03:35;;;;;;;35.85;7.95;;;;;;;28.30;49.53;99785.09;5040633;28;20053;-65
2021/07/13 11:06:38;;;;;;;33.78;10.05;;;;;;;28.28;49.62;99760.41;5047220;28;20103;-65
2021/07/13 11:09:29;;;;;;;25.83;7.72;;;;;;;28.27;49.23;99747.66;5049322;28;20048;-66
2021/07/13 11:12:15;;;;;;;246.45;37.00;;;;;;;28.25;49.42;99747.34;5043420;28;20119;-65
2021/07/13 11:15:00;;;;;;;505.38;90.68;;;;;;;28.25;49.96;99754.94;5039699;28;20052;-65
2021/07/13 11:17:56;;;;;;;203.32;35.63;;;;;;;28.25;50.10;99752.94;5048034;28;20041;-65
2021/07/13 11:20:41;;;;;;;86.78;16.52;;;;;;;28.24;50.61;99756.22;5038632;28;20046;-65
2021/07/13 11:23:29;;;;;;;273.27;47.63;;;;;;;28.26;50.69;99753.72;5038783;28;20048;-65
2021/07/13 11:26:15;;;;;;;98.45;21.90;;;;;;;28.25;51.52;99740.97;5049924;28;20041;-65
2021/07/13 11:29:02;;;;;;;294.77;50.13;;;;;;;28.23;51.07;99704.31;5042862;28;20112;-65
2021/07/13 11:31:52;;;;;;;111.07;22.83;;;;;;;28.24;51.54;99686.28;5042451;28;20501;-65
2021/07/13 11:34:38;;;;;;;198.07;34.00;;;;;;;28.22;51.66;99680.38;5042589;28;20501;-65
2021/07/13 11:37:24;;;;;;;221.07;41.78;;;;;;;28.24;51.44;99675.13;5038181;28;20051;-64
2021/07/13 11:40:10;;;;;;;256.45;48.42;;;;;;;28.24;51.57;99689.09;5040500;28;20076;-65
2021/07/13 11:42:59;;;;;;;151.60;30.33;;;;;;;28.24;53.33;99703.06;5045722;28;20046;-65
2021/07/13 11:45:44;;;;;;;174.90;33.55;;;;;;;28.20;52.14;99708.78;5040595;28;20053;-65
2021/07/13 11:48:29;;;;;;;189.80;35.28;;;;;;;28.18;52.15;99739.25;5036095;28;20045;-64
2021/07/13 11:51:32;;;;;;;25.55;7.03;;;;;;;28.19;53.93;99759.59;5047652;28;20488;-65
2021/07/13 11:54:25;;;;;;;103.50;22.63;;;;;;;28.18;52.84;99777.59;5047029;28;20408;-64
2021/07/13 11:57:18;;;;;;;108.57;23.92;;;;;;;28.17;52.12;99759.25;5043949;28;20223;-65
2021/07/13 12:00:05;;;;;;;56.35;12.35;;;;;;;28.16;51.55;99747.31;5045287;28;20044;-65
2021/07/13 12:02:49;;;;;;;20.20;5.43;;;;;;;28.14;51.75;99743.41;5038147;28;20068;-65
2021/07/13 12:05:34;;;;;;;57.58;12.93;;;;;;;28.11;52.22;99714.31;5047444;28;20048;-65
2021/07/13 12:08:22;;;;;;;27.02;7.63;;;;;;;28.11;52.42;99689.16;5044904;28;20045;-65
2021/07/13 12:11:09;;;;;;;33.97;7.82;;;;;;;28.12;52.57;99664.81;5044010;28;20048;-64
2021/07/13 12:13:57;;;;;;;37.67;8.23;;;;;;;28.09;53.21;99666.47;5046094;28;20051;-65
2021/07/13 12:16:43;;;;;;;16.15;6.05;;;;;;;28.09;54.40;99672.06;5046198;28;20063;-65
2021/07/13 12:19:30;;;;;;;23.77;6.45;;;;;;;28.10;54.62;99682.00;5047427;28;20060;-65
2021/07/13 12:22:21;;;;;;;35.17;7.63;;;;;;;28.08;54.79;99678.91;5042557;28;20397;-64
2021/07/13 12:25:08;;;;;;;21.50;6.13;;;;;;;28.10;57.29;99693.19;5040183;28;20045;-65
2021/07/13 12:28:09;;;;;;;31.30;9.00;;;;;;;28.05;61.29;99714.13;5040610;28;20060;-65
2021/07/13 12:31:08;;;;;;;35.63;8.93;;;;;;;28.02;60.06;99728.25;5048329;28;20412;-65
2021/07/13 12:33:54;;;;;;;47.72;11.88;;;;;;;27.99;58.80;99741.13;5051153;28;20048;-66
2021/07/13 12:36:38;;;;;;;97.85;24.38;;;;;;;28.01;56.28;99763.03;5047479;28;20048;-65
2021/07/13 12:39:23;;;;;;;136.35;32.13;;;;;;;28.03;55.37;99774.53;5045454;28;20067;-66
2021/07/13 12:42:12;;;;;;;102.85;24.85;;;;;;;28.04;53.95;99781.69;5039916;28;20409;-65
2021/07/13 12:44:57;;;;;;;134.50;30.48;;;;;;;28.03;53.91;99786.50;5045023;28;20060;-65
2021/07/13 12:47:50;;;;;;;101.22;25.15;;;;;;;28.05;54.10;99794.41;5030555;28;20525;-65
2021/07/13 12:50:45;;;;;;;56.63;15.98;;;;;;;28.07;54.29;99792.75;5023503;28;20061;-65
2021/07/13 12:53:30;;;;;;;80.85;21.77;;;;;;;28.09;54.28;99801.44;5028002;28;20056;-65
2021/07/13 12:56:15;;;;;;;111.88;23.60;;;;;;;28.12;54.55;99790.63;5038681;28;20511;-65
2021/07/13 12:59:09;;;;;;;79.72;19.50;;;;;;;28.11;52.93;99808.59;5031804;28;20040;-64
2021/07/13 13:02:11;;;;;;;144.27;34.90;;;;;;;28.12;52.66;99819.34;5028952;28;20044;-64